weather.gov     
National Weather Service

Terminal Aerodrome Forecast
NWS Homepage
This page is being discontinued on March 12, 2014.
The same data is available at this site. Please update your bookmarks.
Thank you, and we apologize for the inconvenience.
Please send an email to SR-SRH.Webmaster@noaa.gov with any concerns.


Current Version
Previous Version:    01  02  03  04  05  06  07  08  09  10  11  12  13  14  15  16  17  18  19  20  21  22  23  24  25  26  27  28  29  30  
   31  32  33  34  35  
[Printable]
795
FTUS42 KTBW 240700 AAA
TAFRSW
TAF AMD
KRSW 240710Z 2407/2506 16004KT 6SM BR OVC005
     FM240900 16004KT 3SM BR OVC004
     FM241400 18008KT P6SM SCT005 BKN010
     FM241600 20011KT P6SM SCT010 BKN025
     FM242000 22011KT P6SM SCT025 SCT250
     FM250000 20005KT P6SM SCT010 BKN250
     FM250300 VRB03KT 5SM BR BKN010=


U.S. Dept. of Commerce
NOAA National Weather Service
1325 East West Highway
Silver Spring, MD 20910
E-mail: w-nws.webmaster@noaa.gov
Page last modified: May 16, 2007
NATIONAL WEATHER SERVICE: for Safety, for Work, for Fun - FOR LIFE